createdAt,value
2019-02-19T00:00:32.739Z,8.86
2019-02-19T00:01:32.755Z,8.81
2019-02-19T00:02:32.707Z,8.78
2019-02-19T00:03:32.707Z,8.81
2019-02-19T00:04:32.712Z,8.78
2019-02-19T00:05:32.741Z,8.84
2019-02-19T00:06:32.716Z,8.82
2019-02-19T00:07:32.719Z,8.78
2019-02-19T00:08:32.781Z,8.78
2019-02-19T00:09:32.736Z,8.77
2019-02-19T00:10:32.736Z,8.75
2019-02-19T00:11:32.734Z,8.74
2019-02-19T00:12:32.730Z,8.77
2019-02-19T00:13:32.743Z,8.75
2019-02-19T00:14:32.767Z,8.78
2019-02-19T00:15:32.764Z,8.79
2019-02-19T00:16:32.777Z,8.74
2019-02-19T00:17:32.764Z,8.77
2019-02-19T00:18:32.764Z,8.77
2019-02-19T00:19:32.777Z,8.72
2019-02-19T00:20:32.790Z,8.72
2019-02-19T00:21:32.811Z,8.69
2019-02-19T00:22:32.809Z,8.74
2019-02-19T00:23:32.804Z,8.72
2019-02-19T00:24:32.820Z,8.72
2019-02-19T00:25:32.780Z,8.74
2019-02-19T00:26:32.794Z,8.77
2019-02-19T00:27:32.828Z,8.74
2019-02-19T00:28:32.796Z,8.75
2019-02-19T00:29:32.811Z,8.74
2019-02-19T00:30:32.839Z,8.74
2019-02-19T00:31:32.807Z,8.71
2019-02-19T00:32:32.815Z,8.74
2019-02-19T00:33:32.839Z,8.71
2019-02-19T00:34:32.826Z,8.72
2019-02-19T00:35:32.891Z,8.71
2019-02-19T00:36:32.868Z,8.68
2019-02-19T00:37:32.846Z,8.71
2019-02-19T00:38:32.841Z,8.71
2019-02-19T00:39:32.849Z,8.66
2019-02-19T00:40:32.849Z,8.71
2019-02-19T00:41:32.900Z,8.74
2019-02-19T00:42:32.857Z,8.66
2019-02-19T00:43:32.880Z,8.66
2019-02-19T00:44:32.872Z,8.66
2019-02-19T00:45:32.876Z,8.71
2019-02-19T00:46:32.876Z,8.60
2019-02-19T00:47:32.903Z,8.69
2019-02-19T00:48:32.917Z,8.60
2019-02-19T00:49:32.884Z,8.66
2019-02-19T00:50:32.890Z,8.74
2019-02-19T00:51:32.904Z,8.66
2019-02-19T00:52:32.910Z,8.68
2019-02-19T00:53:32.916Z,8.68
2019-02-19T00:54:32.916Z,8.71
2019-02-19T00:55:32.920Z,8.69
2019-02-19T00:56:32.933Z,8.66
2019-02-19T00:57:32.918Z,8.68
2019-02-19T00:58:32.944Z,8.61
2019-02-19T00:59:32.918Z,8.60
2019-02-19T01:00:32.926Z,8.71
2019-02-19T01:01:32.927Z,8.68
2019-02-19T01:02:32.951Z,8.59
2019-02-19T01:03:32.977Z,8.64
2019-02-19T01:04:32.943Z,8.54
2019-02-19T01:05:32.961Z,8.63
2019-02-19T01:06:32.964Z,8.64
2019-02-19T01:07:32.968Z,8.59
2019-02-19T01:08:32.971Z,8.71
2019-02-19T01:09:33.013Z,8.56
2019-02-19T01:10:32.991Z,8.64
2019-02-19T01:11:32.972Z,8.57
2019-02-19T01:12:32.964Z,8.54
2019-02-19T01:13:32.971Z,8.54
2019-02-19T01:14:32.985Z,8.56
2019-02-19T01:15:33.022Z,8.63
2019-02-19T01:16:32.984Z,8.61
2019-02-19T01:17:32.983Z,8.59
2019-02-19T01:18:32.991Z,8.63
2019-02-19T01:19:32.998Z,8.60
2019-02-19T01:20:33.014Z,8.64
2019-02-19T01:21:32.993Z,8.59
2019-02-19T01:22:33.011Z,8.56
2019-02-19T01:23:33.027Z,8.59
2019-02-19T01:24:33.003Z,8.59
2019-02-19T01:25:33.041Z,8.57
2019-02-19T01:26:33.005Z,8.54
2019-02-19T01:27:33.034Z,8.64
2019-02-19T01:28:33.027Z,8.60
2019-02-19T01:29:33.047Z,8.59
2019-02-19T01:30:33.114Z,8.61
2019-02-19T01:31:33.040Z,8.57
2019-02-19T01:32:33.046Z,8.56
2019-02-19T01:33:33.037Z,8.56
2019-02-19T01:34:33.037Z,8.57
2019-02-19T01:35:33.066Z,8.56
2019-02-19T01:36:33.082Z,8.63
2019-02-19T01:37:33.076Z,8.53
2019-02-19T01:38:33.078Z,8.57
2019-02-19T01:39:33.073Z,8.52
2019-02-19T01:40:33.080Z,8.53
2019-02-19T01:41:33.138Z,8.53
2019-02-19T01:42:33.091Z,8.56
2019-02-19T01:43:33.079Z,8.53
2019-02-19T01:44:33.116Z,8.46
2019-02-19T01:45:34.326Z,8.53
2019-02-19T01:46:33.109Z,8.53
2019-02-19T01:47:33.117Z,8.46
2019-02-19T01:48:33.106Z,8.54
2019-02-19T01:49:33.099Z,8.53
2019-02-19T01:50:33.117Z,8.46
2019-02-19T01:51:33.114Z,8.50
2019-02-19T01:52:33.140Z,8.46
2019-02-19T01:53:33.135Z,8.52
2019-02-19T01:54:33.136Z,8.45
2019-02-19T01:55:33.136Z,8.49
2019-02-19T01:56:33.144Z,8.45
2019-02-19T01:57:33.160Z,8.39
2019-02-19T01:58:33.143Z,8.42
2019-02-19T01:59:33.135Z,8.46
2019-02-19T02:00:33.151Z,8.42
2019-02-19T02:01:33.148Z,8.42
2019-02-19T02:02:33.183Z,8.41
2019-02-19T02:03:33.222Z,8.42
2019-02-19T02:04:33.162Z,8.41
2019-02-19T02:05:33.179Z,8.45
2019-02-19T02:06:33.166Z,8.42
2019-02-19T02:07:33.226Z,8.49
2019-02-19T02:08:33.183Z,8.41
2019-02-19T02:09:33.211Z,8.41
2019-02-19T02:10:33.193Z,8.50
2019-02-19T02:11:33.199Z,8.34
2019-02-19T02:12:33.210Z,8.45
2019-02-19T02:13:33.215Z,8.41
2019-02-19T02:14:33.206Z,8.46
2019-02-19T02:15:33.207Z,8.39
2019-02-19T02:16:33.219Z,8.41
2019-02-19T02:17:33.218Z,8.45
2019-02-19T02:18:33.273Z,8.46
2019-02-19T02:19:33.237Z,8.35
2019-02-19T02:20:33.285Z,8.49
2019-02-19T02:21:33.238Z,8.38
2019-02-19T02:22:33.226Z,8.41
2019-02-19T02:23:33.261Z,8.39
2019-02-19T02:24:33.255Z,8.44
2019-02-19T02:25:33.250Z,8.32
2019-02-19T02:26:33.305Z,8.46
2019-02-19T02:27:33.245Z,8.41
2019-02-19T02:28:33.253Z,8.42
2019-02-19T02:29:33.254Z,8.39
2019-02-19T02:30:33.279Z,8.41
2019-02-19T02:31:33.272Z,8.39
2019-02-19T02:32:33.296Z,8.45
2019-02-19T02:33:33.274Z,8.45
2019-02-19T02:34:33.283Z,8.45
2019-02-19T02:35:33.283Z,8.38
2019-02-19T02:36:33.310Z,8.36
2019-02-19T02:37:33.313Z,8.41
2019-02-19T02:38:33.327Z,8.36
2019-02-19T02:39:33.304Z,8.36
2019-02-19T02:40:33.294Z,8.36
2019-02-19T02:41:33.328Z,8.42
2019-02-19T02:42:33.322Z,8.39
2019-02-19T02:43:33.309Z,8.42
2019-02-19T02:44:33.349Z,8.41
2019-02-19T02:45:33.329Z,8.45
2019-02-19T02:46:33.370Z,8.38
2019-02-19T02:47:33.326Z,8.36
2019-02-19T02:48:33.332Z,8.39
2019-02-19T02:49:33.355Z,8.36
2019-02-19T02:50:33.334Z,8.46
2019-02-19T02:51:33.401Z,8.45
2019-02-19T02:52:33.376Z,8.38
2019-02-19T02:53:33.355Z,8.44
2019-02-19T02:54:33.363Z,8.44
2019-02-19T02:55:33.375Z,8.44
2019-02-19T02:56:33.395Z,8.42
2019-02-19T02:57:33.388Z,8.49
2019-02-19T02:58:33.407Z,8.45
2019-02-19T02:59:33.384Z,8.42
2019-02-19T03:00:33.389Z,8.38
2019-02-19T03:01:33.427Z,8.38
2019-02-19T03:02:33.387Z,8.39
2019-02-19T03:03:33.393Z,8.41
2019-02-19T03:04:33.406Z,8.36
2019-02-19T03:05:33.413Z,8.42
2019-02-19T03:06:33.413Z,8.46
2019-02-19T03:07:33.436Z,8.39
2019-02-19T03:08:33.413Z,8.42
2019-02-19T03:09:33.421Z,8.35
2019-02-19T03:10:33.418Z,8.28
2019-02-19T03:11:33.435Z,8.27
2019-02-19T03:12:33.462Z,8.27
2019-02-19T03:13:33.445Z,8.32
2019-02-19T03:14:33.436Z,8.31
2019-02-19T03:15:33.429Z,8.26
2019-02-19T03:16:33.471Z,8.23
2019-02-19T03:17:33.437Z,8.24
2019-02-19T03:18:33.463Z,8.24
2019-02-19T03:19:33.487Z,8.24
2019-02-19T03:20:33.448Z,8.18
2019-02-19T03:21:33.453Z,8.20
2019-02-19T03:22:33.516Z,8.24
2019-02-19T03:23:33.485Z,8.21
2019-02-19T03:24:33.484Z,8.21
2019-02-19T03:25:33.490Z,8.17
2019-02-19T03:26:33.489Z,8.16
2019-02-19T03:27:33.493Z,8.20
2019-02-19T03:28:33.544Z,8.18
2019-02-19T03:29:33.486Z,8.18
2019-02-19T03:30:33.507Z,8.23
2019-02-19T03:31:33.490Z,8.14
2019-02-19T03:32:33.525Z,8.21
2019-02-19T03:33:33.506Z,8.09
2019-02-19T03:34:33.542Z,8.20
2019-02-19T03:35:33.517Z,8.18
2019-02-19T03:36:33.531Z,8.14
2019-02-19T03:37:33.539Z,8.24
2019-02-19T03:38:33.532Z,8.20
2019-02-19T03:39:33.560Z,8.24
2019-02-19T03:40:33.567Z,8.23
2019-02-19T03:41:33.541Z,8.21
2019-02-19T03:42:33.542Z,8.17
2019-02-19T03:43:33.549Z,8.17
2019-02-19T03:44:33.558Z,8.16
2019-02-19T03:45:33.565Z,8.20
2019-02-19T03:46:33.561Z,8.17
2019-02-19T03:47:33.550Z,8.14
2019-02-19T03:48:33.568Z,8.16
2019-02-19T03:49:33.586Z,8.21
2019-02-19T03:50:33.590Z,8.26
2019-02-19T03:51:33.593Z,8.23
2019-02-19T03:52:33.580Z,8.20
2019-02-19T03:53:33.578Z,8.14
2019-02-19T03:54:33.583Z,8.16
2019-02-19T03:55:33.621Z,8.24
2019-02-19T03:56:33.586Z,8.21
2019-02-19T03:57:33.591Z,8.21
2019-02-19T03:58:33.631Z,8.26
2019-02-19T03:59:33.611Z,8.18
2019-02-19T04:00:33.641Z,8.17
2019-02-19T04:01:33.616Z,8.08
2019-02-19T04:02:33.623Z,8.17
2019-02-19T04:03:33.639Z,8.14
2019-02-19T04:04:33.623Z,8.21
2019-02-19T04:05:33.658Z,8.16
2019-02-19T04:06:33.657Z,8.05
2019-02-19T04:07:33.625Z,8.11
2019-02-19T04:08:33.683Z,8.08
2019-02-19T04:09:33.648Z,8.08
2019-02-19T04:10:33.645Z,8.06
2019-02-19T04:11:33.690Z,8.05
2019-02-19T04:12:33.675Z,8.09
2019-02-19T04:13:33.672Z,8.05
2019-02-19T04:14:33.651Z,8.11
2019-02-19T04:15:33.667Z,8.06
2019-02-19T04:16:33.671Z,8.05
2019-02-19T04:17:33.699Z,8.09
2019-02-19T04:18:33.688Z,8.06
2019-02-19T04:19:33.683Z,8.09
2019-02-19T04:20:33.688Z,8.11
2019-02-19T04:21:33.693Z,8.09
2019-02-19T04:22:33.715Z,8.09
2019-02-19T04:23:33.696Z,8.03
2019-02-19T04:24:33.705Z,8.03
2019-02-19T04:25:33.730Z,8.03
2019-02-19T04:26:33.703Z,8.06
2019-02-19T04:27:33.748Z,8.06
2019-02-19T04:28:33.702Z,8.03
2019-02-19T04:29:33.725Z,7.96
2019-02-19T04:30:33.713Z,7.93
2019-02-19T04:31:33.722Z,8.02
2019-02-19T04:32:33.730Z,7.88
2019-02-19T04:33:33.776Z,7.88
2019-02-19T04:34:33.735Z,7.91
2019-02-19T04:35:33.776Z,7.87
2019-02-19T04:36:33.747Z,7.90
2019-02-19T04:37:33.781Z,7.90
2019-02-19T04:38:33.768Z,7.90
2019-02-19T04:39:33.753Z,7.93
2019-02-19T04:40:33.771Z,7.90
2019-02-19T04:41:33.771Z,7.91
2019-02-19T04:42:33.785Z,7.90
2019-02-19T04:43:33.811Z,7.99
2019-02-19T04:44:33.829Z,7.88
2019-02-19T04:45:33.778Z,7.88
2019-02-19T04:46:33.784Z,7.93
2019-02-19T04:47:33.780Z,7.95
2019-02-19T04:48:33.827Z,8.02
2019-02-19T04:49:33.799Z,7.99
2019-02-19T04:50:33.792Z,7.93
2019-02-19T04:51:33.804Z,7.93
2019-02-19T04:52:33.805Z,7.96
2019-02-19T04:53:33.852Z,7.87
2019-02-19T04:54:33.825Z,7.88
2019-02-19T04:55:33.826Z,7.91
2019-02-19T04:56:33.817Z,7.96
2019-02-19T04:57:33.822Z,8.03
2019-02-19T04:58:33.839Z,8.01
2019-02-19T04:59:33.840Z,7.99
2019-02-19T05:00:33.821Z,7.99
2019-02-19T05:01:33.833Z,8.08
2019-02-19T05:02:33.867Z,8.02
2019-02-19T05:03:33.901Z,8.03
2019-02-19T05:04:33.868Z,8.08
2019-02-19T05:05:33.857Z,7.98
2019-02-19T05:06:33.856Z,8.03
2019-02-19T05:07:33.855Z,7.99
2019-02-19T05:08:33.866Z,7.99
2019-02-19T05:09:33.916Z,8.02
2019-02-19T05:10:33.869Z,8.01
2019-02-19T05:11:33.897Z,7.95
2019-02-19T05:12:33.893Z,8.02
2019-02-19T05:13:33.866Z,7.98
2019-02-19T05:14:33.909Z,7.99
2019-02-19T05:15:33.882Z,7.99
2019-02-19T05:16:40.522Z,7.91
2019-02-19T05:17:33.893Z,7.95
2019-02-19T05:18:33.897Z,7.95
2019-02-19T05:19:33.964Z,7.93
2019-02-19T05:20:34.027Z,7.93
2019-02-19T05:21:33.914Z,7.98
2019-02-19T05:22:33.923Z,7.88
2019-02-19T05:23:33.938Z,7.96
2019-02-19T05:24:33.929Z,7.99
2019-02-19T05:25:33.950Z,7.96
2019-02-19T05:26:33.937Z,8.03
2019-02-19T05:27:33.936Z,8.01
2019-02-19T05:28:33.949Z,8.01
2019-02-19T05:29:33.972Z,7.98
2019-02-19T05:30:34.010Z,7.87
2019-02-19T05:31:33.954Z,7.95
2019-02-19T05:32:33.973Z,7.88
2019-02-19T05:33:33.966Z,7.93
2019-02-19T05:34:33.943Z,7.95
2019-02-19T05:35:34.175Z,7.90
2019-02-19T05:36:33.981Z,7.90
2019-02-19T05:37:33.977Z,7.95
2019-02-19T05:38:33.972Z,8.02
2019-02-19T05:39:34.012Z,8.02
2019-02-19T05:40:33.991Z,7.98
2019-02-19T05:41:33.995Z,8.01
2019-02-19T05:42:33.985Z,7.88
2019-02-19T05:43:34.027Z,7.90
2019-02-19T05:44:34.058Z,7.96
2019-02-19T05:45:33.998Z,8.02
2019-02-19T05:46:33.988Z,8.03
2019-02-19T05:47:34.038Z,8.02
2019-02-19T05:48:34.004Z,8.06
2019-02-19T05:49:34.003Z,7.99
2019-02-19T05:50:34.013Z,7.99
2019-02-19T05:51:34.022Z,8.03
2019-02-19T05:52:34.080Z,8.05
2019-02-19T05:53:34.028Z,8.03
2019-02-19T05:54:34.055Z,8.05
2019-02-19T05:55:34.039Z,8.06
2019-02-19T05:56:34.050Z,8.06
2019-02-19T05:57:34.057Z,8.09
2019-02-19T05:58:34.114Z,8.08
2019-02-19T05:59:34.037Z,8.09
2019-02-19T06:00:34.056Z,8.06
2019-02-19T06:01:34.081Z,8.13
2019-02-19T06:02:34.045Z,8.17
2019-02-19T06:03:34.071Z,8.21
2019-02-19T06:04:34.085Z,8.20
2019-02-19T06:05:34.092Z,8.17
2019-02-19T06:06:34.075Z,8.21
2019-02-19T06:07:34.078Z,8.24
2019-02-19T06:08:34.125Z,8.16
2019-02-19T06:09:34.074Z,8.09
2019-02-19T06:10:34.082Z,8.23
2019-02-19T06:11:34.193Z,8.14
2019-02-19T06:12:34.131Z,8.20
2019-02-19T06:13:34.199Z,8.20
2019-02-19T06:14:34.101Z,8.17
2019-02-19T06:15:34.120Z,8.24
2019-02-19T06:16:34.102Z,8.26
2019-02-19T06:17:34.131Z,8.18
2019-02-19T06:18:34.135Z,8.26
2019-02-19T06:19:34.159Z,8.27
2019-02-19T06:20:34.122Z,8.27
2019-02-19T06:21:34.160Z,8.23
2019-02-19T06:22:34.131Z,8.20
2019-02-19T06:23:34.140Z,8.35
2019-02-19T06:24:34.156Z,8.23
2019-02-19T06:25:34.167Z,8.42
2019-02-19T06:26:34.179Z,8.35
2019-02-19T06:27:34.161Z,8.31
2019-02-19T06:28:34.157Z,8.35
2019-02-19T06:29:35.095Z,8.41
2019-02-19T06:30:34.167Z,8.45
2019-02-19T06:31:34.186Z,8.39
2019-02-19T06:32:34.172Z,8.39
2019-02-19T06:33:34.190Z,8.38
2019-02-19T06:34:34.173Z,8.45
2019-02-19T06:35:34.247Z,8.44
2019-02-19T06:36:34.234Z,8.57
2019-02-19T06:37:34.192Z,8.56
2019-02-19T06:38:34.212Z,8.56
2019-02-19T06:39:34.195Z,8.49
2019-02-19T06:40:34.231Z,8.59
2019-02-19T06:41:34.239Z,8.59
2019-02-19T06:42:34.244Z,8.56
2019-02-19T06:43:34.202Z,8.61
2019-02-19T06:44:34.208Z,8.60
2019-02-19T06:45:34.213Z,8.57
2019-02-19T06:46:34.221Z,8.63
2019-02-19T06:47:34.263Z,8.56
2019-02-19T06:48:34.242Z,8.63
2019-02-19T06:49:34.243Z,8.64
2019-02-19T06:50:34.471Z,8.64
2019-02-19T06:51:34.263Z,8.74
2019-02-19T06:52:34.252Z,8.72
2019-02-19T06:53:34.330Z,8.72
2019-02-19T06:54:34.272Z,8.77
2019-02-19T06:55:34.274Z,8.84
2019-02-19T06:56:34.338Z,8.86
2019-02-19T06:57:34.263Z,8.84
2019-02-19T06:58:34.358Z,8.97
2019-02-19T06:59:34.282Z,8.87
2019-02-19T07:00:34.271Z,8.87
2019-02-19T07:01:34.413Z,8.96
2019-02-19T07:02:34.330Z,8.93
2019-02-19T07:03:34.306Z,8.97
2019-02-19T07:04:34.371Z,9.00
2019-02-19T07:05:34.306Z,9.02
2019-02-19T07:06:34.300Z,8.99
2019-02-19T07:07:34.307Z,9.15
2019-02-19T07:08:34.384Z,9.12
2019-02-19T07:09:34.342Z,9.09
2019-02-19T07:10:34.337Z,9.13
2019-02-19T07:11:34.332Z,9.18
2019-02-19T07:12:34.372Z,9.21
2019-02-19T07:13:34.375Z,9.19
2019-02-19T07:14:34.358Z,9.27
2019-02-19T07:15:34.367Z,9.34
2019-02-19T07:16:34.369Z,9.36
2019-02-19T07:17:34.376Z,9.34
2019-02-19T07:18:34.395Z,9.37
2019-02-19T07:19:34.388Z,9.33
2019-02-19T07:20:34.357Z,9.47
2019-02-19T07:21:34.359Z,9.36
2019-02-19T07:22:34.368Z,9.42
2019-02-19T07:23:34.407Z,9.48
2019-02-19T07:24:34.400Z,9.54
2019-02-19T07:25:34.391Z,9.47
2019-02-19T07:26:34.404Z,9.42
2019-02-19T07:27:34.412Z,9.44
2019-02-19T07:28:34.406Z,9.56
2019-02-19T07:29:34.436Z,9.59
2019-02-19T07:30:34.416Z,9.64
2019-02-19T07:31:34.460Z,9.63
2019-02-19T07:32:34.492Z,9.67
2019-02-19T07:33:34.425Z,9.69
2019-02-19T07:34:34.452Z,9.69
2019-02-19T07:35:34.424Z,9.82
2019-02-19T07:36:34.444Z,9.73
2019-02-19T07:37:34.435Z,9.82
2019-02-19T07:38:34.546Z,9.80
2019-02-19T07:39:34.479Z,9.91
2019-02-19T07:40:34.487Z,9.87
2019-02-19T07:41:34.463Z,9.95
2019-02-19T07:42:34.460Z,9.92
2019-02-19T07:43:34.481Z,9.92
2019-02-19T07:44:34.475Z,9.91
2019-02-19T07:45:34.491Z,10.02
2019-02-19T07:46:34.490Z,10.00
2019-02-19T07:47:34.506Z,9.97
2019-02-19T07:48:34.537Z,10.05
2019-02-19T07:49:34.515Z,10.06
2019-02-19T07:50:34.525Z,10.07
2019-02-19T07:51:34.500Z,10.07
2019-02-19T07:52:34.527Z,10.10
2019-02-19T07:53:34.535Z,10.03
2019-02-19T07:54:34.553Z,10.10
2019-02-19T07:55:34.563Z,10.09
2019-02-19T07:56:34.520Z,10.18
2019-02-19T07:57:34.527Z,10.23
2019-02-19T07:58:34.533Z,10.25
2019-02-19T07:59:34.542Z,10.24
2019-02-19T08:00:34.561Z,10.21
2019-02-19T08:01:34.590Z,10.24
2019-02-19T08:02:34.549Z,10.27
2019-02-19T08:03:34.668Z,10.21
2019-02-19T08:04:34.570Z,10.31
2019-02-19T08:05:34.600Z,10.31
2019-02-19T08:06:34.621Z,10.38
2019-02-19T08:07:34.579Z,10.34
2019-02-19T08:08:34.590Z,10.39
2019-02-19T08:09:34.593Z,10.38
2019-02-19T08:10:34.601Z,10.43
2019-02-19T08:11:34.612Z,10.45
2019-02-19T08:12:34.620Z,10.51
2019-02-19T08:13:34.617Z,10.46
2019-02-19T08:14:34.617Z,10.51
2019-02-19T08:15:34.626Z,10.55
2019-02-19T08:16:34.697Z,10.57
2019-02-19T08:17:34.656Z,10.58
2019-02-19T08:18:34.643Z,10.62
2019-02-19T08:19:34.653Z,10.68
2019-02-19T08:20:34.674Z,10.59
2019-02-19T08:21:34.712Z,10.72
2019-02-19T08:22:34.682Z,10.69
2019-02-19T08:23:34.728Z,10.69
2019-02-19T08:24:34.712Z,10.86
2019-02-19T08:25:34.680Z,10.87
2019-02-19T08:26:34.689Z,10.95
2019-02-19T08:27:34.687Z,10.89
2019-02-19T08:28:34.701Z,10.87
2019-02-19T08:29:34.688Z,10.94
2019-02-19T08:30:34.686Z,10.98
2019-02-19T08:31:34.796Z,10.97
2019-02-19T08:32:34.708Z,11.10
2019-02-19T08:33:34.741Z,10.98
2019-02-19T08:34:34.723Z,11.10
2019-02-19T08:35:34.726Z,11.20
2019-02-19T08:36:34.738Z,11.25
2019-02-19T08:37:34.760Z,11.26
2019-02-19T08:38:34.798Z,11.23
2019-02-19T08:39:34.759Z,11.30
2019-02-19T08:40:34.746Z,11.33
2019-02-19T08:41:34.764Z,11.44
2019-02-19T08:42:34.789Z,11.45
2019-02-19T08:43:34.813Z,11.37
2019-02-19T08:44:34.809Z,11.58
2019-02-19T08:45:34.807Z,11.52
2019-02-19T08:46:34.792Z,11.62
2019-02-19T08:47:42.231Z,11.71
2019-02-19T08:48:34.798Z,11.71
2019-02-19T08:49:34.834Z,11.73
2019-02-19T08:50:34.803Z,11.83
2019-02-19T08:51:34.989Z,11.86
2019-02-19T08:52:34.856Z,11.97
2019-02-19T08:53:34.831Z,11.99
2019-02-19T08:54:34.848Z,11.97
2019-02-19T08:55:34.988Z,11.95
2019-02-19T08:56:34.858Z,11.97
2019-02-19T08:57:34.852Z,11.95
2019-02-19T08:58:34.849Z,12.10
2019-02-19T08:59:34.973Z,12.11
2019-02-19T09:00:34.872Z,12.07
2019-02-19T09:01:34.879Z,11.97
2019-02-19T09:02:34.877Z,12.10
2019-02-19T09:03:34.901Z,12.10
2019-02-19T09:04:34.883Z,12.14
2019-02-19T09:05:34.924Z,12.23
2019-02-19T09:06:34.903Z,12.20
2019-02-19T09:07:34.908Z,12.35
2019-02-19T09:08:34.913Z,12.32
2019-02-19T09:09:34.918Z,12.36
2019-02-19T09:10:34.958Z,12.29
2019-02-19T09:11:34.928Z,12.39
2019-02-19T09:12:34.942Z,12.50
2019-02-19T09:13:34.946Z,12.43
2019-02-19T09:14:34.956Z,12.48
2019-02-19T09:15:34.983Z,12.43
2019-02-19T09:16:34.961Z,12.51
2019-02-19T09:17:34.978Z,12.61
2019-02-19T09:18:34.970Z,12.61
2019-02-19T09:19:35.033Z,12.61
2019-02-19T09:20:36.848Z,12.55
2019-02-19T09:21:34.984Z,12.70
2019-02-19T09:22:34.984Z,12.70
2019-02-19T09:23:35.004Z,12.80
2019-02-19T09:24:35.025Z,12.69
2019-02-19T09:25:35.019Z,12.73
2019-02-19T09:26:35.039Z,12.83
2019-02-19T09:27:35.031Z,12.73
2019-02-19T09:28:35.023Z,12.81
2019-02-19T09:29:35.033Z,12.73
2019-02-19T09:30:35.050Z,12.81
2019-02-19T09:31:35.085Z,12.86
2019-02-19T09:32:35.090Z,12.91
2019-02-19T09:33:35.103Z,12.90
2019-02-19T09:34:35.076Z,12.90
2019-02-19T09:35:35.091Z,12.95
2019-02-19T09:36:35.096Z,12.98
2019-02-19T09:37:35.112Z,12.99
2019-02-19T09:38:35.094Z,12.91
2019-02-19T09:39:35.107Z,12.88
2019-02-19T09:40:35.146Z,12.84
2019-02-19T09:41:35.145Z,12.81
2019-02-19T09:42:35.153Z,12.87
2019-02-19T09:43:35.706Z,12.88
2019-02-19T09:44:35.125Z,12.91
2019-02-19T09:45:35.159Z,12.93
2019-02-19T09:46:35.137Z,12.98
2019-02-19T09:47:35.157Z,12.90
2019-02-19T09:48:35.189Z,12.94
2019-02-19T09:49:35.175Z,13.02
2019-02-19T09:50:35.200Z,12.94
2019-02-19T09:51:35.194Z,13.01
2019-02-19T09:52:35.197Z,12.88
2019-02-19T09:53:35.231Z,13.06
2019-02-19T09:54:35.189Z,13.06
2019-02-19T09:55:35.223Z,13.05
2019-02-19T09:56:35.219Z,12.98
2019-02-19T09:57:35.214Z,12.91
2019-02-19T09:58:35.215Z,13.02
2019-02-19T09:59:35.226Z,13.05
2019-02-19T10:00:35.295Z,12.98
2019-02-19T10:01:35.250Z,12.90
2019-02-19T10:02:35.249Z,12.86
2019-02-19T10:03:35.261Z,12.94
2019-02-19T10:04:35.275Z,12.88
2019-02-19T10:05:35.274Z,13.06
2019-02-19T10:06:35.311Z,12.90
2019-02-19T10:07:35.291Z,12.93
2019-02-19T10:08:35.337Z,12.91
2019-02-19T10:09:35.300Z,13.01
2019-02-19T10:10:35.295Z,12.93
2019-02-19T10:11:35.368Z,12.78
2019-02-19T10:12:35.322Z,12.76
2019-02-19T10:13:35.323Z,12.83
2019-02-19T10:14:35.348Z,12.94
2019-02-19T10:15:35.332Z,12.87
2019-02-19T10:16:41.401Z,12.95
2019-02-19T10:17:35.515Z,13.06
2019-02-19T10:18:35.369Z,13.19
2019-02-19T10:19:35.367Z,13.16
2019-02-19T10:20:35.370Z,13.16
2019-02-19T10:21:35.418Z,13.19
2019-02-19T10:22:35.446Z,13.17
2019-02-19T10:23:35.394Z,13.05
2019-02-19T10:24:35.405Z,13.16
2019-02-19T10:25:35.419Z,13.17
2019-02-19T10:26:35.471Z,13.11
2019-02-19T10:27:35.432Z,13.03
2019-02-19T10:28:35.430Z,13.08
2019-02-19T10:29:35.427Z,13.09
2019-02-19T10:30:35.421Z,13.12
2019-02-19T10:31:35.454Z,13.13
2019-02-19T10:32:35.489Z,13.21
2019-02-19T10:33:35.460Z,13.37
2019-02-19T10:34:35.445Z,13.45
2019-02-19T10:35:35.479Z,13.52
2019-02-19T10:36:35.546Z,13.57
2019-02-19T10:37:35.540Z,13.58
2019-02-19T10:38:35.478Z,13.60
2019-02-19T10:39:35.494Z,13.62
2019-02-19T10:40:35.493Z,13.64
2019-02-19T10:41:35.511Z,13.67
2019-02-19T10:42:35.533Z,13.54
2019-02-19T10:43:35.591Z,13.52
2019-02-19T10:44:35.530Z,13.40
2019-02-19T10:45:35.524Z,13.37
2019-02-19T10:46:35.559Z,13.46
2019-02-19T10:47:35.955Z,13.39
2019-02-19T10:48:35.553Z,13.40
2019-02-19T10:49:35.582Z,13.37
2019-02-19T10:50:35.587Z,13.39
2019-02-19T10:51:35.576Z,13.33
2019-02-19T10:52:35.570Z,13.17
2019-02-19T10:53:35.660Z,13.12
2019-02-19T10:54:35.686Z,13.12
2019-02-19T10:55:35.600Z,13.20
2019-02-19T10:56:35.606Z,13.24
2019-02-19T10:57:35.645Z,13.11
2019-02-19T10:58:35.617Z,13.21
2019-02-19T10:59:35.654Z,13.17
2019-02-19T11:00:35.687Z,13.03
2019-02-19T11:01:35.626Z,13.03
2019-02-19T11:02:35.637Z,13.09
2019-02-19T11:03:35.641Z,13.16
2019-02-19T11:04:35.667Z,13.11
2019-02-19T11:05:35.669Z,13.17
2019-02-19T11:06:35.679Z,13.06
2019-02-19T11:07:35.669Z,13.17
2019-02-19T11:08:35.679Z,13.27
2019-02-19T11:09:35.681Z,13.24
2019-02-19T11:10:35.720Z,13.40
2019-02-19T11:11:35.704Z,13.30
2019-02-19T11:12:35.754Z,13.42
2019-02-19T11:13:35.727Z,13.40
2019-02-19T11:14:36.050Z,13.40
2019-02-19T11:15:35.775Z,13.36
2019-02-19T11:16:35.790Z,13.42
2019-02-19T11:17:35.753Z,13.45
2019-02-19T11:18:35.762Z,13.45
2019-02-19T11:19:35.766Z,13.37
2019-02-19T11:20:35.762Z,13.28
2019-02-19T11:21:35.774Z,13.50
2019-02-19T11:22:35.806Z,13.58
2019-02-19T11:23:35.789Z,13.55
2019-02-19T11:24:35.788Z,13.64
2019-02-19T11:25:35.799Z,13.62
2019-02-19T11:26:35.817Z,13.49
2019-02-19T11:27:35.814Z,13.55
2019-02-19T11:28:35.828Z,13.57
2019-02-19T11:29:35.829Z,13.65
2019-02-19T11:30:35.845Z,13.70
2019-02-19T11:31:35.890Z,13.71
2019-02-19T11:32:35.846Z,13.78
2019-02-19T11:33:35.844Z,13.89
2019-02-19T11:34:35.855Z,13.95
2019-02-19T11:35:35.894Z,13.98
2019-02-19T11:36:35.884Z,13.95
2019-02-19T11:37:37.371Z,13.94
2019-02-19T11:38:35.889Z,13.94
2019-02-19T11:39:35.892Z,14.03
2019-02-19T11:40:35.910Z,13.95
2019-02-19T11:41:35.925Z,14.07
2019-02-19T11:42:35.962Z,14.12
2019-02-19T11:43:35.929Z,14.04
2019-02-19T11:44:35.924Z,14.16
2019-02-19T11:45:35.963Z,14.20
2019-02-19T11:46:35.944Z,14.26
2019-02-19T11:47:35.967Z,14.36
2019-02-19T11:48:37.189Z,14.33
2019-02-19T11:49:35.964Z,14.26
2019-02-19T11:50:35.981Z,14.19
2019-02-19T11:51:36.086Z,14.25
2019-02-19T11:52:35.991Z,14.26
2019-02-19T11:53:36.082Z,14.31
2019-02-19T11:54:36.039Z,14.37
2019-02-19T11:55:36.016Z,14.33
2019-02-19T11:56:36.016Z,14.30
2019-02-19T11:57:36.022Z,14.16
2019-02-19T11:58:36.085Z,14.20
2019-02-19T11:59:37.499Z,13.98
2019-02-19T12:00:36.059Z,13.93
2019-02-19T12:01:36.062Z,13.97
2019-02-19T12:02:36.059Z,13.94
2019-02-19T12:03:36.063Z,13.95
2019-02-19T12:04:36.095Z,13.91
2019-02-19T12:05:36.112Z,13.94
2019-02-19T12:06:36.093Z,13.80
2019-02-19T12:07:36.102Z,13.75
2019-02-19T12:08:38.984Z,13.87
2019-02-19T12:09:36.127Z,14.00
2019-02-19T12:10:36.183Z,13.98
2019-02-19T12:11:36.127Z,13.89
2019-02-19T12:12:36.140Z,13.95
2019-02-19T12:13:36.249Z,13.95
2019-02-19T12:14:36.146Z,13.94
2019-02-19T12:15:36.283Z,13.97
2019-02-19T12:16:36.205Z,13.97
2019-02-19T12:17:36.163Z,13.97
2019-02-19T12:18:36.184Z,13.94
2019-02-19T12:19:36.188Z,14.08
2019-02-19T12:20:36.195Z,14.20
2019-02-19T12:21:36.413Z,14.22
2019-02-19T12:22:36.377Z,14.26
2019-02-19T12:23:36.345Z,14.23
2019-02-19T12:24:36.456Z,14.25
2019-02-19T12:25:36.762Z,14.22
2019-02-19T12:26:36.393Z,14.25
2019-02-19T12:27:36.246Z,14.26
2019-02-19T12:28:36.243Z,14.37
2019-02-19T12:29:36.261Z,14.51
2019-02-19T12:30:36.272Z,14.37
2019-02-19T12:31:36.322Z,14.37
2019-02-19T12:32:36.297Z,14.38
2019-02-19T12:33:36.281Z,14.51
2019-02-19T12:34:36.299Z,14.44
2019-02-19T12:35:36.300Z,14.52
2019-02-19T12:36:36.312Z,14.55
2019-02-19T12:37:36.360Z,14.45
2019-02-19T12:38:36.325Z,14.48
2019-02-19T12:39:36.331Z,14.34
2019-02-19T12:40:36.350Z,14.40
2019-02-19T12:41:37.355Z,14.31
2019-02-19T12:42:37.110Z,14.37
2019-02-19T12:43:36.438Z,14.37
2019-02-19T12:44:36.506Z,14.31
2019-02-19T12:45:36.420Z,14.22
2019-02-19T12:46:36.377Z,14.34
2019-02-19T12:47:36.410Z,14.34
2019-02-19T12:48:36.432Z,14.30
2019-02-19T12:49:36.470Z,14.31
2019-02-19T12:50:36.404Z,14.33
2019-02-19T12:51:36.436Z,14.28
2019-02-19T12:52:36.438Z,14.19
2019-02-19T12:53:36.475Z,14.15
2019-02-19T12:54:36.454Z,14.11
2019-02-19T12:55:37.016Z,14.15
2019-02-19T12:56:36.468Z,14.19
2019-02-19T12:57:36.907Z,14.28
2019-02-19T12:58:36.494Z,14.22
2019-02-19T12:59:36.487Z,14.36
2019-02-19T13:00:36.519Z,14.33
2019-02-19T13:01:36.489Z,14.31
2019-02-19T13:02:36.509Z,14.33
2019-02-19T13:03:36.521Z,14.28
2019-02-19T13:04:37.342Z,14.34
2019-02-19T13:05:37.168Z,14.41
2019-02-19T13:06:36.867Z,14.53
2019-02-19T13:07:37.016Z,14.41